Have a Safe July 4th! 

Flight Track Log - Related Links

Times and Time Zones

All times are in EDT time to prevent confusion due to time zone crossing. See the N724AE flight status page for this flight to view local times or setup timezone preferences in your user account.

Time Position Orientation Groundspeed Altitude Reporting Facility
EDT Latitude Longitude Course Direction KTS MPH feet Rate Location/Type
Sat 06:38:15 AM 30.3850 -84.4000 286° West 184 212 1,500  Level Jacksonville Center
Sat 06:39:15 AM 30.3906 -84.4650 276° West 205 236 4,200 2,450 Climbing Jacksonville Center
Sat 06:40:00 AM 30.4711 -84.6552 283° West  Level FlightAware Approximate
Sat 06:40:15 AM 30.4083 -84.5353 286° West 210 242 6,400  Level Jacksonville Center
Sat 06:41:00 AM 30.4923 -84.7616 283° West  Level FlightAware Approximate
Sat 06:41:15 AM 30.4303 -84.6150 288° West 232 267 8,900  Level Jacksonville Center
Sat 06:42:00 AM 30.5168 -84.8671 286° West  Level FlightAware Approximate
Sat 06:42:15 AM 30.4519 -84.7022 286° West 253 291 11,100  Level Jacksonville Center
Sat 06:43:00 AM 30.5430 -84.9721 286° West  Level FlightAware Approximate
Sat 06:43:15 AM 30.4758 -84.7919 287° West 279 321 12,500  Level Jacksonville Center
Sat 06:44:15 AM 30.5014 -84.8889 287° West 294 338 14,300 1,850 Climbing Jacksonville Center
Sat 06:45:15 AM 30.5269 -84.9883 287° West 317 365 16,200 1,700 Climbing Jacksonville Center
Sat 06:46:15 AM 30.5525 -85.0878 287° West 322 371 17,700 1,400 Climbing Jacksonville Center
Sat 06:47:15 AM 30.5800 -85.1872 288° West 322 371 19,000 1,400 Climbing Jacksonville Center
Sat 06:48:15 AM 30.6050 -85.2917 286° West 327 376 20,500 1,550 Climbing Jacksonville Center
Sat 06:49:15 AM 30.6322 -85.3961 287° West 333 383 22,100 1,600 Climbing Jacksonville Center
Sat 06:50:15 AM 30.6594 -85.5056 286° West 345 397 23,700 1,650 Climbing Jacksonville Center
Sat 06:51:15 AM 30.6844 -85.6053 286° West 350 403 25,400 1,650 Climbing Jacksonville Center
Sat 06:52:15 AM 30.7114 -85.7122 286° West 350 403 27,000 1,650 Climbing Jacksonville Center
Sat 06:53:15 AM 30.7381 -85.8194 286° West 350 403 28,700 1,650 Climbing Jacksonville Center
Sat 06:54:15 AM 30.7628 -85.9242 285° West 344 396 30,300 1,500 Climbing Jacksonville Center
Sat 06:55:15 AM 30.7894 -86.0314 286° West 344 396 31,700 1,450 Climbing Jacksonville Center
Sat 06:56:15 AM 30.8139 -86.1361 285° West 344 396 33,200 1,450 Climbing Jacksonville Center
Sat 06:57:15 AM 30.8153 -86.2450 271° West 339 390 34,600 1,200 Climbing Jacksonville Center
Sat 06:58:15 AM 30.8186 -86.3542 272° West 334 384 35,600 700 Climbing Jacksonville Center
Sat 06:59:15 AM 30.8217 -86.4678 272° West 342 394 36,000 200 Climbing Jacksonville Center
Sat 07:00:15 AM 30.8247 -86.5864 272° West 357 411 36,000  Level Jacksonville Center
Sat 07:01:15 AM 30.8331 -86.7247 274° West 382 440 36,000  Level Jacksonville Center
Sat 07:02:15 AM 30.8522 -86.8511 280° West 392 451 36,000  Level Jacksonville Center
Sat 07:03:15 AM 30.8711 -86.9778 280° West 392 451 36,000  Level Jacksonville Center
Sat 07:04:15 AM 30.8900 -87.1044 280° West 392 451 36,000  Level Jacksonville Center
Sat 07:05:58 AM 30.9183 -87.3086 279° West 401 461 36,000  Level Houston Center
Sat 07:06:59 AM 30.9364 -87.4339 280° West 394 453 36,000  Level Houston Center
Sat 07:07:59 AM 30.9542 -87.5583 279° West 390 449 36,000  Level Houston Center
Sat 07:08:59 AM 30.9706 -87.6828 279° West 390 449 36,000  Level Houston Center
Sat 07:10:00 AM 30.9889 -87.8119 279° West 394 453 36,000  Level Houston Center
Sat 07:11:00 AM 31.0067 -87.9369 279° West 393 452 36,000  Level Houston Center
Sat 07:12:01 AM 31.0236 -88.0628 279° West 394 453 36,000  Level Houston Center
Sat 07:13:01 AM 31.0386 -88.1878 278° West 392 451 36,000  Level Houston Center
Sat 07:14:02 AM 31.0556 -88.3114 279° West 389 448 36,000  Level Houston Center
Sat 07:15:02 AM 31.0733 -88.4361 279° West 391 450 36,000  Level Houston Center
Sat 07:16:03 AM 31.0894 -88.5592 279° West 385 443 36,000  Level Houston Center
Sat 07:17:03 AM 31.1067 -88.6922 279° West 385 443 36,000  Level Houston Center
Sat 07:18:04 AM 31.1231 -88.8161 279° West 388 447 36,000  Level Houston Center
Sat 07:19:04 AM 31.1414 -88.9519 279° West 383 441 36,000  Level Houston Center
Sat 07:20:05 AM 31.1586 -89.0753 279° West 386 444 36,000  Level Houston Center
Sat 07:21:06 AM 31.1722 -89.1983 277° West 384 442 36,000  Level Houston Center
Sat 07:22:06 AM 31.1903 -89.3250 279° West 393 452 36,000  Level Houston Center
Sat 07:23:07 AM 31.2056 -89.4475 278° West 388 447 36,000  Level Houston Center
Sat 07:24:07 AM 31.2206 -89.5717 278° West 387 445 36,000  Level Houston Center
Sat 07:25:08 AM 31.2361 -89.6944 278° West 386 444 36,000  Level Houston Center
Sat 07:26:08 AM 31.2536 -89.8181 279° West 389 448 36,000  Level Houston Center
Sat 07:27:09 AM 31.2708 -89.9428 279° West 391 450 36,000  Level Houston Center
Sat 07:28:10 AM 31.2872 -90.0672 279° West 392 451 36,000  Level Houston Center
Sat 07:29:10 AM 31.3061 -90.1911 280° West 390 449 36,000  Level Houston Center
Sat 07:30:11 AM 31.3222 -90.3144 279° West 388 447 36,000  Level Houston Center
Sat 07:31:11 AM 31.3386 -90.4372 279° West 385 443 36,000  Level Houston Center
Sat 07:32:12 AM 31.3556 -90.5611 279° West 387 445 36,000  Level Houston Center
Sat 07:33:13 AM 31.3717 -90.6853 279° West 390 449 36,000  Level Houston Center
Sat 07:34:13 AM 31.3922 -90.8322 279° West 385 443 36,000  Level Houston Center
Sat 07:35:14 AM 31.4083 -90.9564 279° West 389 448 36,000  Level Houston Center
Sat 07:36:14 AM 31.4256 -91.0806 279° West 389 448 36,000  Level Houston Center
Sat 07:37:15 AM 31.4414 -91.2100 278° West 388 447 36,000  Level Houston Center
Sat 07:38:16 AM 31.4569 -91.3356 278° West 389 448 36,000  Level Houston Center
Sat 07:39:16 AM 31.4728 -91.4611 278° West 392 451 36,000  Level Houston Center
Sat 07:40:17 AM 31.4900 -91.5856 279° West 391 450 36,000  Level Houston Center
Sat 07:41:17 AM 31.5044 -91.7108 278° West 390 449 36,000  Level Houston Center
Sat 07:42:18 AM 31.5203 -91.8350 279° West 389 448 36,000  Level Houston Center
Sat 07:43:19 AM 31.5353 -91.9597 278° West 388 447 36,000  Level Houston Center
Sat 07:44:19 AM 31.5483 -92.0736 278° West 386 444 36,000  Level Houston Center
Sat 07:45:20 AM 31.5633 -92.1978 278° West 384 442 36,000  Level Houston Center
Sat 07:46:21 AM 31.5781 -92.3219 278° West 386 444 36,000  Level Houston Center
Sat 07:47:21 AM 31.5942 -92.4458 279° West 386 444 36,000  Level Houston Center
Sat 07:48:22 AM 31.6106 -92.5944 277° West 384 442 36,000  Level Houston Center
Sat 07:49:23 AM 31.6253 -92.7172 278° West 383 441 36,000  Level Houston Center
Sat 07:50:23 AM 31.6392 -92.8411 278° West 383 441 36,000  Level Houston Center
Sat 07:51:24 AM 31.6536 -92.9639 278° West 381 438 36,000  Level Houston Center
Sat 07:52:25 AM 31.6681 -93.0892 278° West 387 445 36,000  Level Houston Center
Sat 07:53:25 AM 31.6828 -93.2131 278° West 386 444 36,000  Level Houston Center
Sat 07:54:26 AM 31.6969 -93.3417 277° West 387 445 36,000  Level Houston Center
Sat 07:55:27 AM 31.7106 -93.4664 277° West 387 445 36,000  Level Houston Center
Sat 07:56:27 AM 31.7256 -93.5994 278° West 387 445 36,000  Level Houston Center
Sat 07:57:28 AM 31.7397 -93.7253 278° West 389 448 36,000  Level Houston Center
Sat 07:58:29 AM 31.7544 -93.8494 278° West 388 447 36,000  Level Houston Center
Sat 07:59:30 AM 31.7797 -93.9731 284° West 391 450 36,000  Level Houston Center
Sat 08:00:31 AM 31.8025 -94.0875 283° West 389 448 36,000  Level Houston Center
Sat 08:01:31 AM 31.8267 -94.2122 283° West 390 449 36,000  Level Houston Center
Sat 08:02:32 AM 31.8544 -94.3439 284° West 389 448 36,000  Level Fort Worth Center
Sat 08:03:32 AM 31.8764 -94.4681 282° West 389 448 36,000  Level Fort Worth Center
Sat 08:04:32 AM 31.9022 -94.5944 284° West 389 448 36,000  Level Fort Worth Center
Sat 08:05:32 AM 31.9361 -94.7206 288° West 395 455 36,000  Level Fort Worth Center
Sat 08:06:32 AM 31.9681 -94.8422 287° West 395 455 36,000  Level Fort Worth Center
Sat 08:07:32 AM 31.9997 -94.9636 287° West 395 455 36,000  Level Fort Worth Center
Sat 08:08:32 AM 32.0333 -95.0853 288° West 395 455 36,000  Level Fort Worth Center
Sat 08:09:32 AM 32.0647 -95.2072 287° West 395 455 36,000  Level Fort Worth Center
Sat 08:10:32 AM 32.0958 -95.3289 287° West 395 455 36,000  Level Fort Worth Center
Sat 08:11:32 AM 32.1272 -95.4533 287° West 395 455 36,000 -300 Level Fort Worth Center
Sat 08:12:32 AM 32.1581 -95.5731 287° West 395 455 35,400 -1,750 Descending Fort Worth Center
Sat 08:13:32 AM 32.1911 -95.6900 288° West 383 441 32,500 -2,900 Descending Fort Worth Center
Sat 08:14:32 AM 32.2242 -95.8244 286° West 383 441 29,600 -2,950 Descending Fort Worth Center
Sat 08:15:32 AM 32.2550 -95.9492 286° West 393 452 26,600 -3,050 Descending Fort Worth Center
Sat 08:16:32 AM 32.2878 -96.0789 287° West 403 464 23,500 -2,900 Descending Fort Worth Center
Sat 08:17:32 AM 32.3161 -96.1917 287° West 403 464 20,800 -2,950 Descending Fort Worth Center
Sat 08:18:32 AM 32.3528 -96.3289 288° West 395 455 17,600 -2,850 Descending Fort Worth Center
Sat 08:19:32 AM 32.3764 -96.4269 286° West 373 429 15,100 -2,350 Descending Fort Worth Center
Sat 08:20:32 AM 32.4461 -96.5297 309° West 356 410 12,900 -1,800 Descending Fort Worth Center
Sat 08:21:32 AM 32.5136 -96.6078 316° Northwest 367 422 11,500 -950 Descending Fort Worth Center
Sat 08:22:32 AM 32.5933 -96.7033 315° West 373 429 11,000 -250 Descending Fort Worth Center
Sat 08:23:32 AM 32.6586 -96.7817 315° West 379 436 11,000  Level Fort Worth Center
Sat 08:24:32 AM 32.7300 -96.8628 316° Northwest 338 389 11,000 -450 Level Fort Worth Center
Sat 08:25:32 AM 32.7781 -96.9019 326° Northwest 307 353 10,100 -1,200 Descending Fort Worth Center
Sat 08:26:32 AM 32.8511 -96.9039 359° North 249 287 8,600 -1,650 Descending Fort Worth Center
Sat 08:26:52 AM 32.8833 -96.9000 North 260 299 7,900 -1,575 Descending Dallas / Fort Worth TRACON
Sat 08:27:52 AM 32.9500 -96.9000 360° North 252 290 6,500 -1,388 Descending Dallas / Fort Worth TRACON
Sat 08:29:32 AM 33.0661 -96.9078 357° North 249 287 4,200 -1,238 Descending Fort Worth Center
Sat 08:30:32 AM 33.1144 -96.9522 322° Northwest 233 268 3,200 -889 Descending Fort Worth Center
Sat 08:30:53 AM 33.1167 -96.9833 275° West 242 278 3,000 -571 Descending Dallas / Fort Worth TRACON

Login

Don't have an account? Register now (free) for customized features, flight alerts, and more!